createdAt,value
2019-02-06T03:32:21.155Z,27.83
2019-02-06T03:34:50.331Z,29.03
2019-02-06T03:37:19.449Z,30.07
2019-02-06T03:39:48.548Z,30.60
2019-02-06T03:42:17.929Z,32.07
2019-02-06T03:44:47.042Z,28.77
2019-02-06T03:47:16.157Z,27.13
2019-02-06T03:49:45.503Z,29.33
2019-02-06T03:52:14.995Z,28.23
2019-02-06T03:54:44.101Z,28.50
2019-02-06T03:57:13.196Z,29.30
2019-02-06T03:59:42.319Z,29.23
2019-02-06T04:02:11.420Z,31.77
2019-02-06T04:04:40.521Z,30.23
2019-02-06T04:07:10.120Z,31.13
2019-02-06T04:09:39.257Z,27.93
2019-02-06T04:12:09.046Z,31.73
2019-02-06T04:14:38.258Z,30.17
2019-02-06T04:17:07.402Z,31.43
2019-02-06T04:19:36.593Z,31.20
2019-02-06T04:22:08.110Z,30.70
2019-02-06T04:24:37.237Z,32.93
2019-02-06T04:27:06.459Z,33.30
2019-02-06T04:29:35.567Z,35.30
2019-02-06T04:32:04.689Z,30.73
2019-02-06T04:34:34.072Z,32.23
2019-02-06T04:37:06.692Z,34.67
2019-02-06T04:39:35.454Z,32.67
2019-02-06T04:42:04.736Z,33.50
2019-02-06T04:44:33.990Z,34.30
2019-02-06T04:47:03.343Z,32.43
2019-02-06T04:49:32.488Z,36.27
2019-02-06T04:52:03.787Z,35.07
2019-02-06T04:54:32.902Z,34.67
2019-02-06T04:57:04.065Z,34.43
2019-02-06T04:59:33.222Z,35.00
2019-02-06T05:02:02.532Z,35.53
2019-02-06T05:04:31.656Z,33.67
2019-02-06T05:07:01.243Z,36.30
2019-02-06T05:09:30.646Z,39.50
2019-02-06T05:11:59.752Z,34.23
2019-02-06T05:14:28.863Z,34.97
2019-02-06T05:16:58.271Z,35.83
2019-02-06T05:19:27.425Z,37.37
2019-02-06T05:21:56.542Z,35.77
2019-02-06T05:24:25.645Z,35.93
2019-02-06T05:26:54.941Z,34.03
2019-02-06T05:29:24.046Z,32.93
2019-02-06T05:31:53.163Z,32.90
2019-02-06T05:34:22.268Z,33.53
2019-02-06T05:36:51.375Z,31.30
2019-02-06T05:39:20.812Z,30.87
2019-02-06T05:41:49.911Z,33.73
2019-02-06T05:44:19.033Z,32.10
2019-02-06T05:46:48.144Z,32.80
2019-02-06T05:49:17.239Z,33.03
2019-02-06T05:51:46.923Z,31.50
2019-02-06T05:54:16.204Z,30.73
2019-02-06T05:56:45.329Z,33.23
2019-02-06T05:59:14.525Z,30.73
2019-02-06T06:01:43.630Z,31.87
2019-02-06T06:04:13.007Z,33.00
2019-02-06T06:06:42.127Z,31.30
2019-02-06T06:09:11.231Z,31.07
2019-02-06T06:11:40.344Z,32.03
2019-02-06T06:14:09.463Z,29.53
2019-02-06T06:16:38.599Z,34.37
2019-02-06T06:19:07.705Z,31.57
2019-02-06T06:21:36.822Z,31.57
2019-02-06T06:24:08.962Z,28.57
2019-02-06T06:26:36.731Z,29.50
2019-02-06T06:29:05.835Z,32.37
2019-02-06T06:31:34.952Z,31.67
2019-02-06T06:34:04.071Z,30.93
2019-02-06T06:36:33.353Z,31.67
2019-02-06T06:39:02.661Z,32.33
2019-02-06T06:41:32.907Z,31.83
2019-02-06T06:44:02.035Z,32.50
2019-02-06T06:46:31.165Z,33.10
2019-02-06T06:49:01.678Z,32.43
2019-02-06T06:51:30.795Z,27.50
2019-02-06T06:53:59.894Z,27.30
2019-02-06T06:56:31.024Z,30.77
2019-02-06T06:59:00.124Z,26.97
2019-02-06T07:01:30.651Z,31.27
2019-02-06T07:03:59.755Z,28.47
2019-02-06T07:06:29.754Z,25.97
2019-02-06T07:08:58.866Z,30.07
2019-02-06T07:11:28.774Z,31.17
2019-02-06T07:13:58.113Z,26.30
2019-02-06T07:16:27.227Z,29.20
2019-02-06T07:18:56.336Z,30.33
2019-02-06T07:21:25.450Z,27.43
2019-02-06T07:23:54.549Z,28.07
2019-02-06T07:26:23.666Z,27.80
2019-02-06T07:28:52.762Z,29.80
2019-02-06T07:31:22.834Z,28.17
2019-02-06T07:33:52.120Z,26.23
2019-02-06T07:36:21.242Z,27.33
2019-02-06T07:38:50.336Z,25.87
2019-02-06T07:41:19.439Z,27.03
2019-02-06T07:43:48.565Z,26.40
2019-02-06T07:46:17.718Z,25.67
2019-02-06T07:48:46.819Z,26.53
2019-02-06T07:51:16.246Z,25.07
2019-02-06T07:53:45.351Z,26.93
2019-02-06T07:56:14.475Z,26.00
2019-02-06T07:58:44.155Z,26.90
2019-02-06T08:01:13.261Z,24.67
2019-02-06T08:03:42.370Z,25.20
2019-02-06T08:06:11.553Z,25.53
2019-02-06T08:08:40.671Z,24.67
2019-02-06T08:11:09.775Z,27.77
2019-02-06T08:13:39.623Z,27.73
2019-02-06T08:16:08.746Z,29.30
2019-02-06T08:18:37.862Z,26.00
2019-02-06T08:21:06.963Z,27.33
2019-02-06T08:23:36.066Z,25.27
2019-02-06T08:26:05.187Z,25.97
2019-02-06T08:28:34.291Z,28.23
2019-02-06T08:31:03.848Z,31.10
2019-02-06T08:33:32.943Z,27.00
2019-02-06T08:36:02.367Z,26.03
2019-02-06T08:38:31.486Z,27.73
2019-02-06T08:41:00.583Z,23.77
2019-02-06T08:43:29.992Z,26.23
2019-02-06T08:45:59.112Z,25.60
2019-02-06T08:48:28.243Z,26.60
2019-02-06T08:50:57.339Z,23.37
2019-02-06T08:53:26.742Z,26.00
2019-02-06T08:55:56.147Z,26.00
2019-02-06T08:58:25.247Z,24.37
2019-02-06T09:00:54.642Z,26.50
2019-02-06T09:03:23.763Z,22.17
2019-02-06T09:05:52.867Z,21.63
2019-02-06T09:08:22.627Z,21.90
2019-02-06T09:10:51.752Z,22.73
2019-02-06T09:13:20.855Z,22.57
2019-02-06T09:15:50.339Z,22.50
2019-02-06T09:18:19.459Z,19.37
2019-02-06T09:20:48.576Z,21.77
2019-02-06T09:23:17.682Z,23.30
2019-02-06T09:25:46.795Z,22.07
2019-02-06T09:28:15.890Z,21.53
2019-02-06T09:30:45.355Z,19.50
2019-02-06T09:33:14.470Z,19.97
2019-02-06T09:35:43.587Z,21.87
2019-02-06T09:38:12.687Z,20.80
2019-02-06T09:40:41.778Z,21.17
2019-02-06T09:43:10.898Z,20.33
2019-02-06T09:45:39.995Z,19.70
2019-02-06T09:48:09.274Z,20.63
2019-02-06T09:50:38.391Z,19.37
2019-02-06T09:53:07.491Z,19.73
2019-02-06T09:55:36.923Z,19.50
2019-02-06T09:58:06.106Z,21.60
2019-02-06T10:00:36.662Z,21.17
2019-02-06T10:03:06.225Z,20.77
2019-02-06T10:05:35.338Z,20.33
2019-02-06T10:08:04.671Z,17.87
2019-02-06T10:10:33.787Z,19.03
2019-02-06T10:13:03.632Z,19.47
2019-02-06T10:15:35.431Z,20.37
2019-02-06T10:18:05.358Z,21.30
2019-02-06T10:20:40.017Z,19.93
2019-02-06T10:23:09.138Z,18.97
2019-02-06T10:25:38.273Z,19.77
2019-02-06T10:28:07.675Z,19.00
2019-02-06T10:30:42.636Z,19.37
2019-02-06T10:33:11.740Z,19.37
2019-02-06T10:35:40.843Z,20.17
2019-02-06T10:38:10.134Z,19.23
2019-02-06T10:40:39.404Z,18.00
2019-02-06T10:43:08.506Z,19.03
2019-02-06T10:45:38.101Z,18.27
2019-02-06T10:48:07.204Z,18.33
2019-02-06T10:50:42.394Z,18.10
2019-02-06T10:53:11.494Z,17.47
2019-02-06T10:55:40.594Z,17.67
2019-02-06T10:58:10.684Z,17.20
2019-02-06T11:00:46.151Z,18.00
2019-02-06T11:03:15.268Z,18.83
2019-02-06T11:05:44.367Z,17.27
2019-02-06T11:08:13.486Z,18.70
2019-02-06T11:10:42.591Z,16.37
2019-02-06T11:13:11.710Z,16.87
2019-02-06T11:15:40.830Z,18.23
2019-02-06T11:18:09.929Z,18.83
2019-02-06T11:20:39.669Z,17.00
2019-02-06T11:23:08.786Z,17.83
2019-02-06T11:25:37.883Z,18.27
2019-02-06T11:28:07.539Z,17.03
2019-02-06T11:30:38.843Z,19.20
2019-02-06T11:33:08.347Z,17.50
2019-02-06T11:35:37.451Z,18.40
2019-02-06T11:38:07.087Z,17.10
2019-02-06T11:40:36.691Z,19.20
2019-02-06T11:43:06.130Z,19.37
2019-02-06T11:45:36.077Z,20.60
2019-02-06T11:48:05.647Z,19.57
2019-02-06T11:50:39.398Z,18.93
2019-02-06T11:53:10.528Z,18.20
2019-02-06T11:55:39.895Z,17.33
2019-02-06T11:58:09.380Z,17.80
2019-02-06T12:00:40.584Z,17.43
2019-02-06T12:03:09.696Z,19.90
2019-02-06T12:05:38.798Z,17.57
2019-02-06T12:08:07.919Z,18.17
2019-02-06T12:10:37.044Z,17.53
2019-02-06T12:13:06.523Z,16.63
2019-02-06T12:15:37.622Z,18.43
2019-02-06T12:18:06.992Z,20.23
2019-02-06T12:20:36.428Z,17.67
2019-02-06T12:23:08.349Z,17.90
2019-02-06T12:25:37.477Z,19.10
2019-02-06T12:28:07.527Z,19.57
2019-02-06T12:30:39.393Z,17.30
2019-02-06T12:33:08.496Z,17.23
2019-02-06T12:35:37.620Z,17.10
2019-02-06T12:38:06.718Z,18.10
2019-02-06T12:40:35.827Z,19.30
2019-02-06T12:43:06.476Z,18.37
2019-02-06T12:45:35.970Z,18.60
2019-02-06T12:48:05.448Z,17.80
2019-02-06T12:50:34.557Z,18.87
2019-02-06T12:53:03.856Z,18.17
2019-02-06T12:55:40.424Z,17.13
2019-02-06T12:58:09.555Z,17.50
2019-02-06T13:00:41.435Z,18.67
2019-02-06T13:03:10.819Z,17.27
2019-02-06T13:05:40.270Z,17.27
2019-02-06T13:08:09.481Z,15.73
2019-02-06T13:10:38.579Z,17.87
2019-02-06T13:13:07.692Z,16.97
2019-02-06T13:15:37.204Z,16.87
2019-02-06T13:18:06.319Z,16.43
2019-02-06T13:20:37.096Z,16.23
2019-02-06T13:23:06.275Z,17.60
2019-02-06T13:25:35.410Z,16.20
2019-02-06T13:28:05.054Z,18.63
2019-02-06T13:30:37.061Z,15.80
2019-02-06T13:33:07.511Z,16.77
2019-02-06T13:35:37.382Z,16.00
2019-02-06T13:38:07.458Z,15.93
2019-02-06T13:40:45.211Z,16.37
2019-02-06T13:43:07.375Z,16.97
2019-02-06T13:45:39.824Z,17.30
2019-02-06T13:48:08.934Z,16.87
2019-02-06T13:50:38.055Z,18.83
2019-02-06T13:53:07.175Z,17.43
2019-02-06T13:55:36.302Z,16.20
2019-02-06T13:58:05.791Z,17.20
2019-02-06T14:00:40.480Z,17.20
2019-02-06T14:03:09.618Z,18.03
2019-02-06T14:05:38.894Z,18.93
2019-02-06T14:08:10.602Z,19.00
2019-02-06T14:10:39.701Z,18.73
2019-02-06T14:13:08.811Z,18.03
2019-02-06T14:15:46.204Z,16.13
2019-02-06T14:18:15.355Z,16.90
2019-02-06T14:20:45.635Z,15.03
2019-02-06T14:23:24.911Z,17.33
2019-02-06T14:26:06.348Z,17.77
2019-02-06T14:28:58.070Z,15.73
2019-02-06T14:31:30.979Z,16.10
2019-02-06T14:34:03.438Z,18.63
2019-02-06T14:36:58.643Z,15.27
2019-02-06T14:39:31.279Z,15.63
2019-02-06T14:42:18.662Z,16.43
2019-02-06T14:44:53.547Z,22.90
2019-02-06T14:47:25.902Z,16.73
2019-02-06T14:50:16.476Z,17.97
2019-02-06T14:53:01.663Z,19.03
2019-02-06T14:55:49.643Z,15.80
2019-02-06T14:58:41.623Z,16.40
2019-02-06T15:01:20.246Z,15.10
2019-02-06T15:03:55.426Z,14.53
2019-02-06T15:06:39.762Z,14.00
2019-02-06T15:09:23.864Z,13.73
2019-02-06T15:11:56.242Z,14.40
2019-02-06T15:14:31.616Z,17.03
2019-02-06T15:17:23.659Z,15.00
2019-02-06T15:20:13.391Z,14.33
2019-02-06T15:23:07.176Z,15.37
2019-02-06T15:25:59.220Z,16.50
2019-02-06T15:28:38.569Z,16.70
2019-02-06T15:31:10.922Z,16.47
2019-02-06T15:33:58.041Z,18.07
2019-02-06T15:36:35.903Z,16.50
2019-02-06T15:39:41.907Z,16.90
2019-02-06T15:42:23.234Z,17.33
2019-02-06T15:44:58.619Z,17.30
2019-02-06T15:47:33.569Z,17.60
2019-02-06T15:50:09.947Z,16.30
2019-02-06T15:52:51.188Z,15.93
2019-02-06T15:55:44.573Z,21.13
2019-02-06T15:58:28.244Z,23.77
2019-02-06T16:01:30.977Z,29.10
2019-02-06T16:04:33.103Z,23.43
2019-02-06T16:07:36.172Z,17.70
2019-02-06T16:10:33.623Z,17.03
2019-02-06T16:13:22.971Z,15.70
2019-02-06T16:16:27.236Z,15.40
2019-02-06T16:18:59.631Z,16.70
2019-02-06T16:21:53.231Z,17.00
2019-02-06T16:24:32.479Z,15.33
2019-02-06T16:27:13.285Z,16.30
2019-02-06T16:30:03.042Z,16.70
2019-02-06T16:32:39.667Z,15.33
2019-02-06T16:35:37.624Z,16.27
2019-02-06T16:38:18.782Z,17.40
2019-02-06T16:41:12.622Z,15.80
2019-02-06T16:44:02.755Z,14.40
2019-02-06T16:46:46.818Z,16.40
2019-02-06T16:49:34.118Z,19.93
2019-02-06T16:52:27.295Z,17.27
2019-02-06T16:55:03.149Z,16.63
2019-02-06T16:57:38.176Z,16.17
2019-02-06T17:00:19.175Z,15.27
2019-02-06T17:03:04.215Z,17.20
2019-02-06T17:05:42.678Z,15.27
2019-02-06T17:08:17.787Z,16.53
2019-02-06T17:10:53.295Z,17.93
2019-02-06T17:13:31.379Z,16.37
2019-02-06T17:16:27.728Z,16.23
2019-02-06T17:19:15.601Z,15.00
2019-02-06T17:22:19.500Z,16.93
2019-02-06T17:24:54.747Z,18.33
2019-02-06T17:27:46.723Z,14.73
2019-02-06T17:30:19.486Z,16.47
2019-02-06T17:33:08.407Z,14.63
2019-02-06T17:35:55.655Z,15.73
2019-02-06T17:38:46.342Z,14.97
2019-02-06T17:41:18.796Z,14.37
2019-02-06T17:43:58.258Z,15.43
2019-02-06T17:46:33.438Z,15.47
2019-02-06T17:49:08.574Z,15.23
2019-02-06T17:51:56.013Z,14.07
2019-02-06T17:54:28.371Z,16.37
2019-02-06T17:56:57.515Z,14.80
2019-02-06T17:59:26.667Z,13.83
2019-02-06T18:01:55.766Z,14.73
2019-02-06T18:04:25.256Z,13.03
2019-02-06T18:06:54.996Z,14.23
2019-02-06T18:09:24.094Z,14.47
2019-02-06T18:11:53.243Z,14.43
2019-02-06T18:14:22.346Z,15.73
2019-02-06T18:16:52.564Z,14.70
2019-02-06T18:19:21.665Z,14.20
2019-02-06T18:21:51.299Z,13.83
2019-02-06T18:24:20.398Z,14.77
2019-02-06T18:26:49.784Z,14.07
2019-02-06T18:29:19.000Z,14.40
2019-02-06T18:31:48.323Z,13.93
2019-02-06T18:34:17.474Z,14.50
2019-02-06T18:36:46.647Z,14.07
2019-02-06T18:39:16.406Z,14.20
2019-02-06T18:41:45.506Z,14.20
2019-02-06T18:44:14.650Z,16.83
2019-02-06T18:46:45.655Z,14.67
2019-02-06T18:49:14.839Z,14.93
2019-02-06T18:51:44.184Z,15.67
2019-02-06T18:54:13.407Z,15.30
2019-02-06T18:56:42.890Z,17.13
2019-02-06T18:59:12.066Z,15.67
2019-02-06T19:01:42.156Z,16.83
2019-02-06T19:04:11.399Z,17.83
2019-02-06T19:06:40.582Z,18.50
2019-02-06T19:09:11.155Z,17.10
2019-02-06T19:11:40.335Z,18.20
2019-02-06T19:14:09.444Z,18.57
2019-02-06T19:16:38.968Z,18.17
2019-02-06T19:19:08.282Z,19.00
2019-02-06T19:21:37.454Z,18.50
2019-02-06T19:24:06.966Z,19.93
2019-02-06T19:26:36.078Z,20.93
2019-02-06T19:29:05.218Z,19.77
2019-02-06T19:31:34.320Z,17.63
2019-02-06T19:34:04.501Z,15.60
2019-02-06T19:36:33.600Z,18.17
2019-02-06T19:39:06.772Z,19.13
2019-02-06T19:41:35.942Z,18.97
2019-02-06T19:44:05.047Z,20.17
2019-02-06T19:46:34.342Z,20.53
2019-02-06T19:49:03.638Z,19.60
2019-02-06T19:51:32.798Z,20.33
2019-02-06T19:54:03.739Z,20.30
2019-02-06T19:56:32.882Z,18.23
2019-02-06T19:59:03.171Z,19.67
2019-02-06T20:01:32.398Z,19.87
2019-02-06T20:04:03.718Z,18.83
2019-02-06T20:06:33.767Z,20.23
2019-02-06T20:09:04.739Z,18.23
2019-02-06T20:11:35.286Z,18.67
2019-02-06T20:14:04.696Z,17.80
2019-02-06T20:16:33.843Z,19.10
2019-02-06T20:19:03.019Z,19.57
2019-02-06T20:21:32.123Z,17.33
2019-02-06T20:24:02.985Z,17.93
2019-02-06T20:26:32.171Z,18.80
2019-02-06T20:29:02.680Z,18.30
2019-02-06T20:31:32.166Z,17.57
2019-02-06T20:34:01.689Z,16.00
2019-02-06T20:36:30.799Z,19.07
2019-02-06T20:38:59.904Z,18.53
2019-02-06T20:41:29.828Z,17.97
2019-02-06T20:43:58.972Z,18.53
2019-02-06T20:46:28.635Z,21.13
2019-02-06T20:48:59.646Z,18.67
2019-02-06T20:51:28.742Z,20.97
2019-02-06T20:53:57.847Z,20.63
2019-02-06T20:56:27.371Z,20.93
2019-02-06T20:58:56.522Z,19.53
2019-02-06T21:01:25.618Z,18.83
2019-02-06T21:03:54.718Z,14.77
2019-02-06T21:06:23.874Z,16.70
2019-02-06T21:08:52.971Z,17.83
2019-02-06T21:11:22.070Z,20.33
2019-02-06T21:13:51.295Z,19.47
2019-02-06T21:16:20.395Z,20.63
2019-02-06T21:18:49.501Z,20.60
2019-02-06T21:21:18.639Z,18.00
2019-02-06T21:23:47.730Z,18.43
2019-02-06T21:26:16.883Z,19.97
2019-02-06T21:28:46.366Z,18.00
2019-02-06T21:31:15.550Z,17.67
2019-02-06T21:33:44.767Z,18.97
2019-02-06T21:36:13.916Z,17.83
2019-02-06T21:38:43.015Z,18.40
2019-02-06T21:41:12.155Z,18.13
2019-02-06T21:43:44.215Z,17.13
2019-02-06T21:46:12.747Z,17.07
2019-02-06T21:48:41.843Z,16.67
2019-02-06T21:51:10.989Z,17.60
2019-02-06T21:53:40.159Z,18.60
2019-02-06T21:56:09.261Z,16.77
2019-02-06T21:58:38.785Z,17.67
2019-02-06T22:01:07.963Z,17.73
2019-02-06T22:03:37.070Z,17.40
2019-02-06T22:06:06.198Z,16.43
2019-02-06T22:08:35.297Z,17.50
2019-02-06T22:11:04.431Z,19.80
2019-02-06T22:13:33.911Z,19.17
2019-02-06T22:16:03.590Z,18.37
2019-02-06T22:18:32.711Z,18.37
2019-02-06T22:21:02.164Z,17.57
2019-02-06T22:23:31.285Z,18.07
2019-02-06T22:26:00.404Z,18.47
2019-02-06T22:28:29.886Z,17.60
2019-02-06T22:30:59.000Z,20.17
2019-02-06T22:33:28.110Z,23.33
2019-02-06T22:35:57.213Z,20.00
2019-02-06T22:38:26.316Z,21.33
2019-02-06T22:40:55.436Z,17.40
2019-02-06T22:43:24.810Z,18.47
2019-02-06T22:45:54.982Z,16.07
2019-02-06T22:48:24.103Z,15.37
2019-02-06T22:50:53.274Z,16.20
2019-02-06T22:53:22.399Z,16.77
2019-02-06T22:55:51.523Z,17.03
2019-02-06T22:58:20.899Z,16.97
2019-02-06T23:00:59.596Z,16.67
2019-02-06T23:03:31.693Z,15.47
2019-02-06T23:06:03.328Z,16.63
2019-02-06T23:08:32.426Z,18.50
2019-02-06T23:11:03.363Z,16.60
2019-02-06T23:13:32.459Z,18.53
